createdAt,value
2018-09-17T00:01:55.928Z,6.07
2018-09-17T00:04:25.204Z,6.13
2018-09-17T00:06:54.489Z,6.10
2018-09-17T00:09:23.771Z,6.17
2018-09-17T00:11:53.082Z,5.47
2018-09-17T00:14:22.772Z,6.30
2018-09-17T00:16:52.068Z,5.70
2018-09-17T00:19:21.404Z,5.53
2018-09-17T00:21:50.736Z,6.27
2018-09-17T00:24:20.015Z,6.83
2018-09-17T00:26:49.335Z,5.83
2018-09-17T00:29:18.637Z,5.80
2018-09-17T00:31:48.073Z,7.47
2018-09-17T00:34:17.375Z,6.07
2018-09-17T00:36:47.088Z,5.97
2018-09-17T00:39:16.367Z,6.40
2018-09-17T00:41:45.629Z,5.97
2018-09-17T00:44:14.899Z,6.90
2018-09-17T00:46:44.170Z,7.10
2018-09-17T00:49:13.499Z,6.30
2018-09-17T00:51:42.840Z,6.10
2018-09-17T00:54:12.161Z,6.60
2018-09-17T00:56:41.702Z,6.87
2018-09-17T00:59:11.409Z,7.33
2018-09-17T01:01:40.676Z,7.10
2018-09-17T01:04:09.972Z,6.37
2018-09-17T01:06:39.287Z,7.53
2018-09-17T01:09:12.839Z,7.10
2018-09-17T01:11:42.132Z,7.00
2018-09-17T01:14:11.481Z,7.10
2018-09-17T01:16:40.741Z,7.83
2018-09-17T01:19:10.442Z,7.37
2018-09-17T01:21:39.774Z,6.70
2018-09-17T01:24:09.327Z,8.20
2018-09-17T01:26:38.685Z,7.77
2018-09-17T01:29:08.011Z,7.53
2018-09-17T01:31:37.304Z,7.37
2018-09-17T01:34:07.106Z,7.37
2018-09-17T01:36:36.426Z,7.40
2018-09-17T01:39:09.738Z,7.57
2018-09-17T01:41:39.030Z,7.83
2018-09-17T01:44:08.984Z,7.40
2018-09-17T01:46:38.515Z,7.57
2018-09-17T01:49:07.787Z,8.00
2018-09-17T01:51:37.067Z,7.40
2018-09-17T01:54:06.640Z,7.40
2018-09-17T01:56:35.955Z,7.97
2018-09-17T01:59:05.348Z,7.03
2018-09-17T02:01:35.004Z,8.10
2018-09-17T02:04:04.303Z,7.33
2018-09-17T02:06:33.644Z,8.27
2018-09-17T02:09:03.082Z,7.07
2018-09-17T02:11:32.369Z,8.20
2018-09-17T02:14:01.786Z,7.10
2018-09-17T02:16:31.172Z,7.50
2018-09-17T02:19:00.580Z,8.07
2018-09-17T02:21:29.879Z,7.13
2018-09-17T02:23:59.729Z,7.50
2018-09-17T02:26:29.106Z,7.30
2018-09-17T02:28:58.391Z,7.43
2018-09-17T02:31:27.723Z,7.93
2018-09-17T02:33:56.996Z,7.40
2018-09-17T02:36:26.232Z,7.70
2018-09-17T02:38:55.620Z,7.23
2018-09-17T02:41:24.903Z,7.63
2018-09-17T02:43:54.182Z,8.07
2018-09-17T02:46:23.847Z,8.30
2018-09-17T02:48:53.117Z,7.73
2018-09-17T02:51:22.389Z,7.70
2018-09-17T02:53:51.699Z,7.43
2018-09-17T02:56:21.051Z,8.17
2018-09-17T02:58:50.315Z,7.77
2018-09-17T03:01:19.586Z,7.13
2018-09-17T03:03:49.309Z,8.00
2018-09-17T03:06:18.625Z,8.93
2018-09-17T03:08:48.579Z,8.50
2018-09-17T03:11:17.952Z,8.93
2018-09-17T03:13:47.283Z,7.50
2018-09-17T03:16:16.656Z,8.53
2018-09-17T03:18:54.573Z,8.70
2018-09-17T03:21:23.960Z,8.20
2018-09-17T03:23:53.606Z,8.87
2018-09-17T03:26:23.316Z,8.17
2018-09-17T03:28:52.670Z,8.53
2018-09-17T03:31:21.951Z,9.00
2018-09-17T03:33:51.219Z,9.20
2018-09-17T03:36:20.614Z,8.80
2018-09-17T03:38:50.267Z,9.03
2018-09-17T03:41:20.629Z,8.80
2018-09-17T03:43:51.213Z,8.60
2018-09-17T03:46:20.565Z,9.20
2018-09-17T03:48:49.992Z,8.57
2018-09-17T03:51:19.422Z,9.20
2018-09-17T03:53:48.861Z,8.70
2018-09-17T03:56:18.247Z,8.80
2018-09-17T03:58:48.088Z,8.90
2018-09-17T04:01:17.373Z,8.80
2018-09-17T04:03:47.030Z,8.73
2018-09-17T04:06:16.401Z,8.50
2018-09-17T04:08:45.937Z,8.17
2018-09-17T04:11:15.305Z,9.07
2018-09-17T04:13:45.182Z,8.80
2018-09-17T04:16:14.476Z,9.27
2018-09-17T04:18:43.850Z,8.97
2018-09-17T04:21:13.155Z,9.10
2018-09-17T04:23:42.555Z,9.30
2018-09-17T04:26:12.689Z,8.73
2018-09-17T04:28:42.039Z,8.43
2018-09-17T04:31:11.356Z,8.60
2018-09-17T04:33:43.242Z,9.10
2018-09-17T04:36:13.402Z,9.43
2018-09-17T04:38:42.709Z,8.37
2018-09-17T04:41:12.048Z,9.07
2018-09-17T04:43:41.482Z,8.10
2018-09-17T04:46:11.003Z,8.37
2018-09-17T04:48:40.305Z,9.50
2018-09-17T04:51:09.606Z,8.53
2018-09-17T04:53:38.904Z,8.73
2018-09-17T04:56:08.360Z,9.10
2018-09-17T04:58:37.608Z,9.43
2018-09-17T05:01:06.882Z,11.70
2018-09-17T05:03:36.251Z,9.30
2018-09-17T05:06:05.543Z,8.90
2018-09-17T05:08:34.797Z,9.90
2018-09-17T05:11:04.827Z,9.50
2018-09-17T05:13:34.254Z,9.50
2018-09-17T05:16:03.648Z,9.53
2018-09-17T05:18:33.110Z,9.27
2018-09-17T05:21:02.459Z,10.17
2018-09-17T05:23:31.748Z,8.70
2018-09-17T05:26:01.127Z,9.13
2018-09-17T05:28:30.429Z,8.77
2018-09-17T05:30:59.831Z,8.40
2018-09-17T05:33:29.171Z,8.20
2018-09-17T05:35:59.472Z,8.67
2018-09-17T05:38:28.734Z,8.90
2018-09-17T05:40:58.482Z,8.37
2018-09-17T05:43:27.759Z,9.30
2018-09-17T05:45:57.164Z,8.87
2018-09-17T05:48:26.523Z,8.80
2018-09-17T05:50:55.911Z,9.30
2018-09-17T05:53:25.194Z,8.67
2018-09-17T05:55:54.822Z,8.87
2018-09-17T05:58:24.167Z,8.60
2018-09-17T06:00:53.477Z,8.63
2018-09-17T06:03:23.087Z,8.43
2018-09-17T06:05:52.639Z,8.93
2018-09-17T06:08:21.971Z,8.97
2018-09-17T06:10:51.299Z,7.77
2018-09-17T06:13:20.620Z,8.20
2018-09-17T06:15:49.955Z,8.30
2018-09-17T06:18:19.259Z,8.70
2018-09-17T06:20:48.647Z,8.53
2018-09-17T06:23:17.968Z,8.43
2018-09-17T06:25:47.707Z,8.03
2018-09-17T06:28:17.001Z,8.33
2018-09-17T06:30:46.284Z,7.37
2018-09-17T06:33:15.580Z,8.40
2018-09-17T06:35:44.878Z,7.60
2018-09-17T06:38:14.174Z,7.50
2018-09-17T06:40:43.533Z,8.30
2018-09-17T06:43:12.845Z,7.83
2018-09-17T06:45:42.117Z,8.40
2018-09-17T06:48:12.630Z,8.27
2018-09-17T06:50:41.899Z,8.00
2018-09-17T06:53:11.300Z,7.50
2018-09-17T06:55:40.617Z,8.13
2018-09-17T06:58:09.977Z,7.67
2018-09-17T07:00:39.278Z,7.53
2018-09-17T07:03:08.717Z,6.90
2018-09-17T07:05:38.006Z,7.67
2018-09-17T07:08:07.325Z,7.10
2018-09-17T07:10:36.815Z,7.63
2018-09-17T07:13:06.104Z,7.37
2018-09-17T07:15:35.467Z,7.17
2018-09-17T07:18:04.986Z,6.70
2018-09-17T07:20:34.221Z,6.73
2018-09-17T07:23:03.702Z,6.77
2018-09-17T07:25:33.064Z,6.10
2018-09-17T07:28:02.305Z,6.83
2018-09-17T07:30:32.019Z,6.57
2018-09-17T07:33:01.765Z,6.60
2018-09-17T07:35:31.045Z,6.80
2018-09-17T07:38:00.414Z,6.40
2018-09-17T07:40:29.795Z,6.30
2018-09-17T07:42:59.063Z,5.77
2018-09-17T07:45:28.757Z,5.50
2018-09-17T07:47:58.256Z,5.90
2018-09-17T07:50:27.592Z,6.10
2018-09-17T07:52:56.936Z,5.47
2018-09-17T07:55:26.960Z,5.30
2018-09-17T07:57:56.378Z,5.00
2018-09-17T08:00:25.783Z,5.13
2018-09-17T08:02:55.122Z,5.40
2018-09-17T08:05:25.021Z,5.50
2018-09-17T08:07:54.439Z,4.27
2018-09-17T08:10:25.516Z,5.10
2018-09-17T08:12:54.868Z,5.10
2018-09-17T08:15:24.511Z,4.60
2018-09-17T08:17:54.360Z,4.70
2018-09-17T08:20:24.235Z,4.07
2018-09-17T08:22:53.681Z,4.03
2018-09-17T08:25:23.204Z,4.10
2018-09-17T08:27:52.586Z,4.10
2018-09-17T08:30:22.162Z,4.07
2018-09-17T08:32:51.599Z,3.90
2018-09-17T08:35:21.192Z,3.57
2018-09-17T08:37:50.616Z,3.63
2018-09-17T08:40:20.160Z,4.70
2018-09-17T08:42:49.713Z,3.60
2018-09-17T08:45:19.153Z,3.23
2018-09-17T08:47:48.508Z,3.50
2018-09-17T08:50:17.931Z,4.87
2018-09-17T08:52:47.373Z,3.37
2018-09-17T08:55:22.430Z,3.50
2018-09-17T08:57:56.617Z,3.37
2018-09-17T09:02:34.220Z,3.60
2018-09-17T09:05:08.924Z,3.90
2018-09-17T09:07:43.504Z,3.13
2018-09-17T09:10:18.859Z,3.60
2018-09-17T09:12:53.696Z,3.90
2018-09-17T09:15:28.127Z,3.60
2018-09-17T09:17:57.590Z,3.60
2018-09-17T09:20:27.079Z,3.10
2018-09-17T09:22:56.556Z,2.90
2018-09-17T09:25:26.500Z,3.23
2018-09-17T09:27:55.838Z,4.03
2018-09-17T09:30:25.189Z,3.00
2018-09-17T09:32:55.022Z,3.13
2018-09-17T09:35:24.712Z,4.57
2018-09-17T09:37:54.169Z,3.20
2018-09-17T09:40:23.587Z,3.20
2018-09-17T09:42:52.835Z,2.17
2018-09-17T09:45:22.234Z,2.43
2018-09-17T09:47:51.584Z,2.70
2018-09-17T09:50:20.962Z,3.50
2018-09-17T09:52:50.460Z,1.90
2018-09-17T09:55:20.155Z,2.50
2018-09-17T09:57:49.590Z,2.70
2018-09-17T10:00:24.261Z,2.90
2018-09-17T10:02:58.819Z,3.90
2018-09-17T10:05:28.219Z,2.77
2018-09-17T10:07:57.607Z,2.00
2018-09-17T10:10:32.324Z,2.47
2018-09-17T10:13:07.060Z,2.27
2018-09-17T10:15:42.251Z,2.10
2018-09-17T10:18:16.723Z,2.30
2018-09-17T10:20:46.319Z,2.43
2018-09-17T10:23:15.893Z,1.83
2018-09-17T10:25:45.142Z,2.00
2018-09-17T10:28:14.872Z,1.97
2018-09-17T10:30:44.200Z,1.90
2018-09-17T10:33:13.621Z,2.60
2018-09-17T10:35:43.101Z,1.93
2018-09-17T10:38:12.428Z,1.80
2018-09-17T10:40:41.738Z,2.47
2018-09-17T10:43:11.049Z,2.00
2018-09-17T10:45:40.390Z,2.30
2018-09-17T10:48:09.878Z,2.40
2018-09-17T10:50:39.606Z,2.43
2018-09-17T10:53:09.208Z,2.40
2018-09-17T10:55:38.514Z,2.40
2018-09-17T10:58:07.879Z,2.17
2018-09-17T11:00:37.225Z,2.07
2018-09-17T11:03:06.513Z,2.20
2018-09-17T11:05:35.847Z,2.40
2018-09-17T11:08:05.147Z,2.50
2018-09-17T11:10:34.416Z,2.13
2018-09-17T11:13:04.020Z,2.20
2018-09-17T11:15:39.021Z,2.17
2018-09-17T11:18:08.439Z,2.70
2018-09-17T11:20:37.753Z,1.90
2018-09-17T11:23:07.142Z,2.10
2018-09-17T11:25:36.510Z,2.40
2018-09-17T11:28:05.910Z,2.23
2018-09-17T11:30:35.304Z,2.20
2018-09-17T11:33:04.875Z,2.10
2018-09-17T11:35:34.155Z,2.30
2018-09-17T11:38:10.786Z,2.53
2018-09-17T11:40:40.057Z,2.13
2018-09-17T11:43:09.404Z,2.50
2018-09-17T11:45:38.737Z,2.33
2018-09-17T11:48:08.261Z,2.10
2018-09-17T11:50:37.527Z,2.20
2018-09-17T11:53:07.350Z,2.27
2018-09-17T11:55:36.700Z,2.20
2018-09-17T11:58:06.041Z,2.17
2018-09-17T12:00:40.611Z,2.27
2018-09-17T12:03:15.192Z,2.17
2018-09-17T12:05:50.030Z,2.40
2018-09-17T12:08:20.059Z,2.20
2018-09-17T12:10:49.390Z,2.07
2018-09-17T12:13:19.108Z,1.87
2018-09-17T12:15:48.432Z,1.83
2018-09-17T12:18:17.750Z,2.00
2018-09-17T12:20:47.054Z,1.87
2018-09-17T12:23:16.391Z,1.77
2018-09-17T12:25:45.650Z,1.97
2018-09-17T12:28:15.232Z,2.17
2018-09-17T12:30:44.572Z,2.50
2018-09-17T12:33:13.933Z,2.93
2018-09-17T12:35:43.542Z,2.17
2018-09-17T12:38:12.871Z,2.20
2018-09-17T12:40:42.174Z,1.77
2018-09-17T12:43:11.533Z,2.13
2018-09-17T12:45:40.994Z,2.20
2018-09-17T12:48:10.436Z,2.47
2018-09-17T12:50:39.783Z,2.00
2018-09-17T12:53:09.202Z,1.87
2018-09-17T12:55:38.925Z,1.90
2018-09-17T12:58:08.339Z,2.10
2018-09-17T13:00:37.661Z,2.20
2018-09-17T13:03:07.415Z,1.93
2018-09-17T13:05:36.757Z,2.63
2018-09-17T13:08:06.277Z,2.23
2018-09-17T13:10:36.265Z,2.53
2018-09-17T13:13:05.629Z,2.40
2018-09-17T13:15:39.272Z,2.53
2018-09-17T13:18:09.383Z,2.60
2018-09-17T13:20:38.893Z,2.00
2018-09-17T13:23:08.204Z,2.10
2018-09-17T13:25:37.582Z,1.70
2018-09-17T13:28:07.217Z,2.30
2018-09-17T13:30:36.501Z,2.50
2018-09-17T13:33:05.953Z,2.93
2018-09-17T13:35:35.301Z,2.47
2018-09-17T13:38:04.661Z,2.47
2018-09-17T13:40:34.058Z,2.23
2018-09-17T13:43:03.367Z,2.20
2018-09-17T13:45:32.954Z,2.20
2018-09-17T13:48:02.289Z,1.90
2018-09-17T13:50:31.630Z,2.30
2018-09-17T13:53:00.928Z,2.00
2018-09-17T13:55:30.284Z,2.13
2018-09-17T13:57:59.605Z,2.10
2018-09-17T14:00:29.067Z,1.90
2018-09-17T14:02:58.521Z,2.67
2018-09-17T14:05:27.865Z,2.40
2018-09-17T14:07:57.103Z,2.90
2018-09-17T14:10:26.432Z,2.40
2018-09-17T14:12:55.729Z,2.90
2018-09-17T14:15:25.894Z,2.20
2018-09-17T14:17:55.244Z,2.80
2018-09-17T14:20:25.345Z,2.50
2018-09-17T14:22:54.651Z,2.60
2018-09-17T14:25:24.346Z,2.70
2018-09-17T14:27:53.623Z,2.70
2018-09-17T14:30:23.050Z,2.53
2018-09-17T14:32:57.669Z,2.20
2018-09-17T14:35:27.367Z,6.73
2018-09-17T14:37:56.723Z,2.40
2018-09-17T14:40:26.385Z,2.10
2018-09-17T14:42:55.650Z,2.47
2018-09-17T14:45:25.126Z,2.30
2018-09-17T14:47:54.456Z,2.50
2018-09-17T14:50:23.878Z,3.00
2018-09-17T14:52:53.354Z,2.40
2018-09-17T14:55:22.820Z,2.77
2018-09-17T14:57:52.069Z,2.13
2018-09-17T15:00:21.447Z,2.30
2018-09-17T15:02:50.925Z,2.20
2018-09-17T15:05:20.272Z,2.03
2018-09-17T15:07:49.802Z,2.50
2018-09-17T15:10:19.234Z,2.07
2018-09-17T15:12:48.435Z,2.53
2018-09-17T15:15:17.823Z,6.47
2018-09-17T15:17:47.118Z,2.47
2018-09-17T15:20:16.722Z,2.47
2018-09-17T15:22:45.998Z,2.67
2018-09-17T15:25:15.602Z,2.20
2018-09-17T15:27:44.944Z,2.40
2018-09-17T15:30:14.284Z,2.40
2018-09-17T15:32:43.795Z,2.90
2018-09-17T15:35:13.063Z,2.30
2018-09-17T15:37:42.944Z,2.57
2018-09-17T15:40:12.403Z,2.83
2018-09-17T15:42:41.642Z,3.37
2018-09-17T15:45:11.245Z,3.20
2018-09-17T15:47:40.857Z,2.53
2018-09-17T15:50:10.335Z,2.60
2018-09-17T15:52:39.627Z,2.87
2018-09-17T15:55:08.951Z,2.77
2018-09-17T15:57:38.283Z,3.13
2018-09-17T16:00:08.251Z,2.10
2018-09-17T16:02:37.606Z,2.80
2018-09-17T16:05:07.484Z,2.67
2018-09-17T16:07:37.218Z,2.53
2018-09-17T16:10:07.640Z,3.53
2018-09-17T16:12:37.234Z,3.00
2018-09-17T16:15:06.590Z,2.97
2018-09-17T16:17:35.910Z,3.50
2018-09-17T16:20:05.393Z,3.27
2018-09-17T16:22:34.685Z,3.20
2018-09-17T16:25:04.067Z,3.73
2018-09-17T16:27:33.653Z,3.10
2018-09-17T16:30:02.955Z,3.27
2018-09-17T16:32:32.675Z,3.00
2018-09-17T16:35:01.950Z,3.03
2018-09-17T16:37:31.382Z,2.70
2018-09-17T16:40:00.741Z,2.70
2018-09-17T16:42:30.052Z,3.10
2018-09-17T16:44:59.384Z,2.97
2018-09-17T16:47:28.760Z,2.40
2018-09-17T16:49:58.058Z,2.73
2018-09-17T16:52:27.371Z,2.93
2018-09-17T16:54:57.190Z,3.40
2018-09-17T16:57:26.504Z,2.80
2018-09-17T16:59:56.151Z,3.70
2018-09-17T17:02:25.637Z,3.77
2018-09-17T17:04:55.154Z,3.73
2018-09-17T17:07:24.528Z,3.77
2018-09-17T17:09:53.978Z,3.97
2018-09-17T17:12:23.307Z,4.60
2018-09-17T17:14:52.768Z,4.90
2018-09-17T17:17:22.636Z,4.73
2018-09-17T17:19:52.034Z,3.70
2018-09-17T17:22:21.485Z,4.10
2018-09-17T17:24:50.763Z,5.57
2018-09-17T17:27:20.134Z,3.90
2018-09-17T17:29:49.526Z,4.80
2018-09-17T17:32:18.974Z,6.43
2018-09-17T17:34:48.430Z,5.87
2018-09-17T17:37:17.749Z,4.57
2018-09-17T17:39:47.671Z,5.90
2018-09-17T17:42:16.791Z,5.30
2018-09-17T17:44:46.123Z,5.60
2018-09-17T17:47:15.598Z,5.87
2018-09-17T17:49:44.899Z,5.00
2018-09-17T17:52:14.204Z,5.67
2018-09-17T17:54:43.582Z,5.73
2018-09-17T17:57:12.879Z,4.40
2018-09-17T17:59:42.264Z,4.97
2018-09-17T18:02:12.444Z,4.97
2018-09-17T18:04:41.768Z,4.67
2018-09-17T18:07:11.098Z,5.67
2018-09-17T18:09:40.420Z,5.60
2018-09-17T18:12:09.786Z,6.70
2018-09-17T18:14:39.198Z,7.67
2018-09-17T18:17:08.554Z,8.30
2018-09-17T18:19:37.979Z,10.20
2018-09-17T18:22:07.479Z,10.83
2018-09-17T18:24:37.111Z,8.70
2018-09-17T18:27:06.475Z,9.10
2018-09-17T18:29:35.808Z,7.30
2018-09-17T18:32:05.219Z,7.47
2018-09-17T18:34:34.535Z,7.90
2018-09-17T18:37:04.095Z,7.77
2018-09-17T18:39:33.597Z,7.60
2018-09-17T18:42:02.871Z,7.37
2018-09-17T18:44:32.207Z,6.60
2018-09-17T18:47:02.064Z,6.13
2018-09-17T18:49:31.443Z,6.73
2018-09-17T18:52:00.780Z,7.57
2018-09-17T18:54:30.562Z,9.10
2018-09-17T18:57:00.153Z,10.20
2018-09-17T18:59:29.564Z,9.03
2018-09-17T19:01:59.011Z,8.33
2018-09-17T19:04:28.464Z,7.40
2018-09-17T19:06:57.850Z,6.97
2018-09-17T19:09:32.651Z,5.83
2018-09-17T19:12:02.099Z,7.23
2018-09-17T19:14:36.709Z,6.00
2018-09-17T19:17:20.009Z,6.60
2018-09-17T19:19:49.480Z,6.40
2018-09-17T19:22:24.121Z,7.90
2018-09-17T19:24:53.519Z,6.37
2018-09-17T19:27:26.943Z,6.43
2018-09-17T19:29:56.437Z,6.10
2018-09-17T19:32:26.061Z,6.90
2018-09-17T19:34:55.420Z,7.47
2018-09-17T19:37:29.912Z,6.33
2018-09-17T19:40:04.467Z,7.17
2018-09-17T19:42:34.570Z,5.50
2018-09-17T19:45:08.973Z,6.80
2018-09-17T19:47:38.519Z,5.90
2018-09-17T19:50:13.299Z,5.50
2018-09-17T19:52:42.728Z,6.23
2018-09-17T19:55:13.349Z,5.80
2018-09-17T20:52:13.568Z,7.03
2018-09-17T21:14:06.275Z,7.53
2018-09-17T21:16:36.090Z,7.20
2018-09-17T21:19:05.489Z,6.90
2018-09-17T21:21:34.892Z,6.90
2018-09-17T21:24:04.685Z,7.57
2018-09-17T21:26:34.091Z,6.70
2018-09-17T21:29:03.441Z,7.33
2018-09-17T21:31:33.058Z,6.60
2018-09-17T21:34:02.547Z,6.73
2018-09-17T21:36:32.035Z,6.60
2018-09-17T21:39:01.581Z,6.30
2018-09-17T21:41:30.901Z,7.00
2018-09-17T21:44:00.233Z,6.43
2018-09-17T21:46:29.932Z,6.70
2018-09-17T21:48:59.353Z,6.60
2018-09-17T21:51:28.715Z,7.20
2018-09-17T21:53:58.066Z,6.83
2018-09-17T21:56:27.617Z,6.60
2018-09-17T21:58:57.419Z,7.30
2018-09-17T22:01:26.804Z,6.97
2018-09-17T22:03:56.186Z,7.30
2018-09-17T22:06:25.700Z,6.80
2018-09-17T22:08:55.047Z,7.80
2018-09-17T22:11:24.323Z,7.10
2018-09-17T22:13:53.741Z,7.00
2018-09-17T22:16:23.557Z,7.20
2018-09-17T22:18:52.880Z,7.03
2018-09-17T22:21:22.275Z,7.60
2018-09-17T22:23:51.595Z,7.63
2018-09-17T22:26:20.919Z,6.20
2018-09-17T22:28:50.268Z,6.97
2018-09-17T22:31:20.377Z,7.80
2018-09-17T22:33:49.675Z,7.77
2018-09-17T22:36:19.259Z,7.37
2018-09-17T22:38:48.541Z,7.90
2018-09-17T22:41:17.917Z,7.10
2018-09-17T22:43:47.564Z,7.50
2018-09-17T22:46:16.822Z,7.40
2018-09-17T22:48:46.098Z,8.37
2018-09-17T22:51:15.919Z,7.90
2018-09-17T22:53:45.234Z,7.67
2018-09-17T22:56:14.534Z,8.40
2018-09-17T22:58:43.821Z,7.63
2018-09-17T23:01:13.103Z,8.10
2018-09-17T23:03:42.437Z,6.73
2018-09-17T23:06:12.267Z,7.83
2018-09-17T23:08:41.559Z,8.60
2018-09-17T23:11:10.858Z,8.50
2018-09-17T23:13:40.222Z,7.63
2018-09-17T23:16:09.543Z,7.70
2018-09-17T23:18:38.771Z,7.87
2018-09-17T23:21:08.418Z,7.40
2018-09-17T23:23:37.757Z,7.80
2018-09-17T23:26:07.159Z,6.73
2018-09-17T23:28:36.556Z,7.20
2018-09-17T23:31:05.930Z,7.80
2018-09-17T23:33:35.208Z,7.53
2018-09-17T23:36:04.817Z,7.10
2018-09-17T23:38:34.065Z,7.70
2018-09-17T23:41:03.372Z,7.50
2018-09-17T23:43:32.878Z,6.27
2018-09-17T23:46:02.139Z,7.07
2018-09-17T23:48:35.007Z,7.73
2018-09-17T23:51:04.297Z,7.00
2018-09-17T23:53:33.899Z,7.73
2018-09-17T23:56:03.229Z,7.17
2018-09-17T23:58:32.527Z,7.50
